cloudbaseCUmx.php :- Version MX_2.2.4 - 22-April-2022
    copyright © Silver Acorn Weather 
    PHP Version 8.1.7


TIME and DATE
    Time Zone :- Europe/London (GMT+1 hours)
    Daylight saving ? :- Yes
    Date/Time :- Mon, 27 Jun 2022 01:28:09 (Night)
    Last updated :- 01:28 Monday, June 27, 2022

INPUT ITEM: RAW DATA -> DERIVED
    Current temp :- 11.9 °C
    Dewpoint :- 9.8 °C
    Rain Fall :- 0.0 mm
    Barometer :- 1006 hPa
    Humidity :- 87 %
    Wind Speed :- 3 mph
    Wind Dir :- 192 degrees
    Cloud Altitude :- 477.27272727273 ft (AGL)
    Latitude :- 54.633889 N = Northern Hemisphere
    Season :- Summer
    Moon Age :- 28 days
    Moon Percent :- 4
    Day or Night ? :- Night
    Tag file time Interval :- 5 Minutes

CUMULUS CONDITIONS
    Cumulus conditions not in use
    Zambretti # :- 7

METAR CONDITONS - Metar Times UTC, Update Station times based on timezone setting
    $pathToMetFile :- ./cache/
    Metar - Rawdata :- 2022/06/27 00:20 EGAC 270020Z AUTO 22007KT 9999 NCD 12/11 Q1006
    Metar - Trimmed :- 270020Z AUTO 22007KT 9999 NCD 12/11 Q1006
    Metar - Decoded :- Not Raining; Sunny
    Now :- 1656289688 seconds
    Metar report timestamp :- 1656289200 seconds
    Age of File :- 8.13 minutes
    When to update Metar :- 1656271740 seconds   (Metar report timestamp plus 39 mins refresh time)
    Next Download in :- -299.13 Minutes (if  '-' then refresh page, if still '-' then Metar update overdue!)
    Metar file :- New File downloaded
     AUTO Metar station updates usually every 30 minutes. MANUAL Metar station updates usually Hourly.

OUTPUT DATA

    Background image file name :- ./images/cb/cb-bg-00sumn.png
    $showAGL / ASL :- true
    Cloud Temp :- 9 °C
    $useWXrain :- true
    $tag interval :- 5
    Last rained :- 0.23 days ago
    Last rained Y-M-D h:m :- 2022-06-26 19:55
    No rain in last 5 minutes :- Not raining
    Moon Image (cbmoon.png) created @ :- 01:28:09

SETTINGS
    $tagfile :- ./cldbaseCUtags.php
    $time last update :- 01:28 on 27 June 2022
    $ICAO :- EGAC
    $pathToMetFile :- ./cache/
    $tz :- Europe/London
    $pathToImages :- ./images/cb/  ( background, cloud, windsock and scale images )
    $srcmoonimgdir :- ./images/moon/  ( source of moon images )
    $dstmoonimgdir :- ./images/moon/  ( cbmoon.png )
    $switchSeasons :- true
    $showCldSource :- true
    $showCloudTemp :- true
    $showCaption :- true
    $showMoon :- true
    $showScale :- true
    $showWinsock :- false
    $showWindDir :- false
    $showWindSpd :- false
    $showTemp :- false
    $showHumidity :- false
    $showBaro :- false
    $alwaysShowCloud :- false
    $useCUHeight :- false
    $getMetar :- true
    $metarRefresh :- true
    $useMetarAtNight :- true
    $onlyUseMetar :- true
    $reportMistAt :- 25 ft
    $reportFogAt :- 10 ft
    $stationAltitude :- 49 m AGL